Time;durP1;ratioP1;P1;durP2;ratioP2;P2;SDS_P1;SDS_P2;PMS_P1;PMS_P2;Temp;Humidity;BMP_temperature;BMP_pressure;BME280_temperature;BME280_humidity;BME280_pressure;Samples;Min_cycle;Max_cycle;Signal;HPM_P1;HPM_P2
2021/06/18 00:01:06;;;;;;;;;;;19.10;99.90;;;;;;5108713;28;19991;-73
2021/06/18 00:03:31;;;;;;;;;;;19.10;99.90;;;;;;5108709;28;19916;-72
2021/06/18 00:05:57;;;;;;;;;;;19.00;99.90;;;;;;5107660;28;19915;-73
2021/06/18 00:08:22;;;;;;;;;;;18.90;99.90;;;;;;5108629;28;19912;-73
2021/06/18 00:10:48;;;;;;;;;;;18.80;99.90;;;;;;5108593;28;19939;-72
2021/06/18 00:13:13;;;;;;;;;;;18.80;99.90;;;;;;5108696;28;20384;-73
2021/06/18 00:15:39;;;;;;;;;;;18.70;99.90;;;;;;5106450;28;20419;-73
2021/06/18 00:18:04;;;;;;;;;;;18.70;99.90;;;;;;5108788;28;19908;-73
2021/06/18 00:20:30;;;;;;;;;;;18.70;99.90;;;;;;5106879;28;20340;-72
2021/06/18 00:22:55;;;;;;;;;;;18.70;99.90;;;;;;5102733;28;20270;-73
2021/06/18 00:25:21;;;;;;;;;;;18.60;99.90;;;;;;5105226;28;20396;-73
2021/06/18 00:27:46;;;;;;;;;;;18.60;99.90;;;;;;5107534;28;19931;-73
2021/06/18 00:30:12;;;;;;;;;;;18.50;99.90;;;;;;5108253;28;19930;-72
2021/06/18 00:32:38;;;;;;;;;;;18.40;99.90;;;;;;5108348;28;20361;-72
2021/06/18 00:35:04;;;;;;;;;;;18.40;99.90;;;;;;5107945;28;19908;-73
2021/06/18 00:37:29;;;;;;;;;;;18.40;99.90;;;;;;5107268;28;19931;-73
2021/06/18 00:39:55;;;;;;;;;;;18.40;99.90;;;;;;5108136;28;19957;-73
2021/06/18 00:42:21;;;;;;;;;;;18.40;99.90;;;;;;5107990;28;19916;-73
2021/06/18 00:44:46;;;;;;;;;;;18.40;99.90;;;;;;5107851;28;20387;-73
2021/06/18 00:47:18;;;;;;;;;;;18.30;99.90;;;;;;5107683;28;19919;-73
2021/06/18 00:49:43;;;;;;;;;;;18.20;99.90;;;;;;5107730;28;19909;-73
2021/06/18 00:52:09;;;;;;;;;;;18.10;99.90;;;;;;5107663;28;19954;-72
2021/06/18 00:54:36;;;;;;;;;;;18.10;99.90;;;;;;5090569;28;20037;-72
2021/06/18 00:57:02;;;;;;;;;;;18.00;99.90;;;;;;5108336;28;19908;-73
2021/06/18 00:59:28;;;;;;;;;;;17.90;99.90;;;;;;5114312;28;19915;-73
2021/06/18 01:01:54;;;;;;;;;;;17.90;99.90;;;;;;5114465;28;20045;-73
2021/06/18 01:04:20;;;;;;;;;;;17.90;99.90;;;;;;5114602;28;19915;-73
2021/06/18 01:06:55;;;;;;;;;;;17.90;99.90;;;;;;5113289;28;19915;-73
2021/06/18 01:09:21;;;;;;;;;;;17.90;99.90;;;;;;5114280;28;19907;-73
2021/06/18 01:11:49;;;;;;;;;;;17.80;99.90;;;;;;5114350;28;20280;-72
2021/06/18 01:14:33;;;;;;;;;;;17.70;99.90;;;;;;5114266;28;19912;-73
2021/06/18 01:17:08;;;;;;;;;;;17.70;99.90;;;;;;5113389;28;19911;-73
2021/06/18 01:19:41;;;;;;;;;;;17.80;99.90;;;;;;5114061;28;19946;-73
2021/06/18 01:22:11;;;;;;;;;;;17.80;99.90;;;;;;5111337;28;20000;-73
2021/06/18 01:24:49;;;;;;;;;;;17.80;99.90;;;;;;5085474;28;19908;-73
2021/06/18 01:27:18;;;;;;;;;;;17.80;99.90;;;;;;5092761;28;20077;-73
2021/06/18 01:30:04;;;;;;;;;;;17.80;99.90;;;;;;5092206;28;19984;-73
2021/06/18 01:32:33;;;;;;;;;;;17.70;99.90;;;;;;5093230;28;19908;-73
2021/06/18 01:34:59;;;;;;;;;;;17.70;99.90;;;;;;5093560;28;20387;-73
2021/06/18 01:37:26;;;;;;;;;;;17.70;99.90;;;;;;5092563;28;19981;-73
2021/06/18 01:39:52;;;;;;;;;;;17.70;99.90;;;;;;5093164;28;19908;-73
2021/06/18 01:42:18;;;;;;;;;;;17.70;99.90;;;;;;5093359;28;19920;-72
2021/06/18 01:44:44;;;;;;;;;;;17.70;99.90;;;;;;5093221;28;19915;-73
2021/06/18 01:47:11;;;;;;;;;;;17.60;99.90;;;;;;5091261;28;20077;-73
2021/06/18 01:49:38;;;;;;;;;;;17.50;99.90;;;;;;5091282;28;20354;-73
2021/06/18 01:52:04;;;;;;;;;;;17.50;99.90;;;;;;5092872;28;20281;-71
2021/06/18 01:54:30;;;;;;;;;;;17.50;99.90;;;;;;5084666;28;20268;-72
2021/06/18 01:56:57;;;;;;;;;;;17.40;99.90;;;;;;5092279;28;19912;-73
2021/06/18 01:59:24;;;;;;;;;;;17.40;99.90;;;;;;5091563;28;19951;-73
2021/06/18 02:01:50;;;;;;;;;;;17.40;99.90;;;;;;5092532;28;20416;-72
2021/06/18 02:04:16;;;;;;;;;;;17.30;99.90;;;;;;5092781;28;20014;-73
2021/06/18 02:06:42;;;;;;;;;;;17.30;99.90;;;;;;5090659;28;19915;-73
2021/06/18 02:09:08;;;;;;;;;;;17.20;99.90;;;;;;5092571;28;19908;-73
2021/06/18 02:11:34;;;;;;;;;;;17.10;99.90;;;;;;5092524;28;19908;-73
2021/06/18 02:14:01;;;;;;;;;;;17.00;99.90;;;;;;5092476;28;19953;-73
2021/06/18 02:16:29;;;;;;;;;;;17.00;99.90;;;;;;5091965;28;19915;-73
2021/06/18 02:18:56;;;;;;;;;;;17.00;99.90;;;;;;5092777;28;20281;-73
2021/06/18 02:21:23;;;;;;;;;;;17.00;99.90;;;;;;5092159;28;19908;-73
2021/06/18 02:23:49;;;;;;;;;;;17.00;99.90;;;;;;5082351;28;19920;-73
2021/06/18 02:26:15;;;;;;;;;;;17.00;99.90;;;;;;5108110;28;20387;-73
2021/06/18 02:28:41;;;;;;;;;;;17.00;99.90;;;;;;5112556;28;19939;-72
2021/06/18 02:31:06;;;;;;;;;;;17.00;99.90;;;;;;5112579;28;20293;-73
2021/06/18 02:33:32;;;;;;;;;;;17.00;99.90;;;;;;5112806;28;19998;-73
2021/06/18 02:35:57;;;;;;;;;;;17.00;99.90;;;;;;5109998;28;19912;-73
2021/06/18 02:38:23;;;;;;;;;;;17.00;99.90;;;;;;5112359;28;19961;-73
2021/06/18 02:40:49;;;;;;;;;;;17.10;99.90;;;;;;5112420;28;19911;-73
2021/06/18 02:43:14;;;;;;;;;;;17.00;99.90;;;;;;5112283;28;19926;-73
2021/06/18 02:45:40;;;;;;;;;;;17.10;99.90;;;;;;5111286;28;20311;-73
2021/06/18 02:48:08;;;;;;;;;;;17.00;99.90;;;;;;5112393;28;19907;-73
2021/06/18 02:50:39;;;;;;;;;;;17.00;99.90;;;;;;5111943;28;19951;-73
2021/06/18 02:53:23;;;;;;;;;;;17.00;99.90;;;;;;5098294;28;19916;-73
2021/06/18 02:55:53;;;;;;;;;;;16.90;99.90;;;;;;5083421;28;20002;-73
2021/06/18 02:58:24;;;;;;;;;;;16.90;99.90;;;;;;5091528;28;20010;-73
2021/06/18 03:00:50;;;;;;;;;;;16.90;99.90;;;;;;5091536;28;19991;-73
2021/06/18 03:03:18;;;;;;;;;;;16.90;99.90;;;;;;5091302;28;20006;-71
2021/06/18 03:05:47;;;;;;;;;;;16.90;99.90;;;;;;5090513;28;19909;-72
2021/06/18 03:08:14;;;;;;;;;;;17.00;99.90;;;;;;5091177;28;19915;-73
2021/06/18 03:10:40;;;;;;;;;;;17.10;99.90;;;;;;5091050;28;19908;-72
2021/06/18 03:13:09;;;;;;;;;;;17.10;99.90;;;;;;5089943;28;20329;-73
2021/06/18 03:15:36;;;;;;;;;;;17.00;99.90;;;;;;5090642;28;19908;-73
2021/06/18 03:18:02;;;;;;;;;;;17.10;99.90;;;;;;5090452;28;19908;-73
2021/06/18 03:20:28;;;;;;;;;;;17.10;99.90;;;;;;5091029;28;20009;-73
2021/06/18 03:23:02;;;;;;;;;;;17.10;99.90;;;;;;5085767;28;19995;-72
2021/06/18 03:25:28;;;;;;;;;;;17.10;99.90;;;;;;5087926;28;20379;-73
2021/06/18 03:27:55;;;;;;;;;;;17.00;99.90;;;;;;5090476;28;19908;-72
2021/06/18 03:30:20;;;;;;;;;;;17.00;99.90;;;;;;5091198;28;19998;-73
2021/06/18 03:32:47;;;;;;;;;;;16.90;99.90;;;;;;5091177;28;20340;-71
2021/06/18 03:35:13;;;;;;;;;;;16.90;99.90;;;;;;5091665;28;20341;-73
2021/06/18 03:37:39;;;;;;;;;;;16.90;99.90;;;;;;5089947;28;20369;-73
2021/06/18 03:40:05;;;;;;;;;;;17.00;99.90;;;;;;5091156;28;19912;-73
2021/06/18 03:42:31;;;;;;;;;;;17.00;99.90;;;;;;5090789;28;19925;-72
2021/06/18 03:44:57;;;;;;;;;;;17.00;99.90;;;;;;5090913;28;19930;-72
2021/06/18 03:47:23;;;;;;;;;;;16.90;99.90;;;;;;5090352;28;20007;-73
2021/06/18 03:49:50;;;;;;;;;;;17.00;99.90;;;;;;5090876;28;19973;-73
2021/06/18 03:52:16;;;;;;;;;;;17.00;99.90;;;;;;5090545;28;19908;-73
2021/06/18 03:54:41;;;;;;;;;;;17.10;99.90;;;;;;5094616;28;19915;-73
2021/06/18 03:57:07;;;;;;;;;;;17.10;99.90;;;;;;5110396;28;19907;-72
2021/06/18 03:59:34;;;;;;;;;;;17.10;99.90;;;;;;5111515;28;19991;-73
2021/06/18 04:02:00;;;;;;;;;;;17.10;99.90;;;;;;5111159;28;19915;-73
2021/06/18 04:04:27;;;;;;;;;;;17.00;99.90;;;;;;5103072;28;19909;-71
2021/06/18 04:06:52;;;;;;;;;;;16.90;99.90;;;;;;5095071;28;20200;-73
2021/06/18 04:09:18;;;;;;;;;;;16.90;99.90;;;;;;5109841;28;20002;-73
2021/06/18 04:11:45;;;;;;;;;;;16.90;99.90;;;;;;5111241;28;19915;-73
2021/06/18 04:14:11;;;;;;;;;;;17.00;99.90;;;;;;5109853;28;19908;-73
2021/06/18 04:16:38;;;;;;;;;;;17.00;99.90;;;;;;5108889;28;19908;-72
2021/06/18 04:19:05;;;;;;;;;;;17.10;99.90;;;;;;5111007;28;19908;-73
2021/06/18 04:21:31;;;;;;;;;;;17.20;99.90;;;;;;5110747;28;20448;-73
2021/06/18 04:23:56;;;;;;;;;;;17.30;99.90;;;;;;5110969;28;19919;-73
2021/06/18 04:26:23;;;;;;;;;;;17.40;99.90;;;;;;5110320;28;19951;-73
2021/06/18 04:28:49;;;;;;;;;;;17.50;99.90;;;;;;5111156;28;19980;-73
2021/06/18 04:31:15;;;;;;;;;;;17.70;99.90;;;;;;5114986;28;20368;-73
2021/06/18 04:33:40;;;;;;;;;;;17.80;99.90;;;;;;5114968;28;20381;-73
2021/06/18 04:36:06;;;;;;;;;;;18.00;99.90;;;;;;5092484;28;19908;-73
2021/06/18 04:38:31;;;;;;;;;;;18.10;99.90;;;;;;5085631;28;20258;-73
2021/06/18 04:40:57;;;;;;;;;;;18.20;99.90;;;;;;5094196;28;19909;-73
2021/06/18 04:43:22;;;;;;;;;;;18.30;99.90;;;;;;5092844;28;19919;-73
2021/06/18 04:45:48;;;;;;;;;;;18.40;99.90;;;;;;5093322;28;19952;-73
2021/06/18 04:48:14;;;;;;;;;;;18.50;99.90;;;;;;5092828;28;19915;-72
2021/06/18 04:50:40;;;;;;;;;;;18.60;99.90;;;;;;5093713;28;19908;-71
2021/06/18 04:53:08;;;;;;;;;;;18.70;99.90;;;;;;5094045;28;19907;-73
2021/06/18 04:55:34;;;;;;;;;;;18.90;99.90;;;;;;5093585;28;19915;-71
2021/06/18 04:58:00;;;;;;;;;;;19.10;99.90;;;;;;5085084;28;19943;-73
2021/06/18 05:00:25;;;;;;;;;;;19.20;99.90;;;;;;5093824;28;20020;-73
2021/06/18 05:02:51;;;;;;;;;;;19.30;99.90;;;;;;5093718;28;19920;-73
2021/06/18 05:05:17;;;;;;;;;;;19.40;99.90;;;;;;5093329;28;19908;-73
2021/06/18 05:07:42;;;;;;;;;;;19.50;99.90;;;;;;5093073;28;19915;-73
2021/06/18 05:10:09;;;;;;;;;;;19.70;99.90;;;;;;5093742;28;19916;-73
2021/06/18 05:12:35;;;;;;;;;;;19.80;99.90;;;;;;5093715;28;19958;-73
2021/06/18 05:15:00;;;;;;;;;;;20.00;99.90;;;;;;5093495;28;19909;-73
2021/06/18 05:17:26;;;;;;;;;;;20.10;99.90;;;;;;5084621;28;20327;-73
2021/06/18 05:19:51;;;;;;;;;;;20.20;99.90;;;;;;5093060;28;19997;-73
2021/06/18 05:22:17;;;;;;;;;;;20.30;99.90;;;;;;5092311;28;20368;-73
2021/06/18 05:24:42;;;;;;;;;;;20.40;99.90;;;;;;5093574;28;19908;-72
2021/06/18 05:27:08;;;;;;;;;;;20.50;99.90;;;;;;5092630;28;19919;-73
2021/06/18 05:29:34;;;;;;;;;;;20.60;99.90;;;;;;5093542;28;19951;-73
2021/06/18 05:32:00;;;;;;;;;;;20.60;99.90;;;;;;5092444;28;19961;-73
2021/06/18 05:34:25;;;;;;;;;;;20.80;99.90;;;;;;5093210;28;20327;-73
2021/06/18 05:36:51;;;;;;;;;;;21.20;99.90;;;;;;5092030;28;19914;-72
2021/06/18 05:39:16;;;;;;;;;;;21.50;99.90;;;;;;5093247;28;20301;-73
2021/06/18 05:41:42;;;;;;;;;;;21.80;99.90;;;;;;5093279;28;19908;-73
2021/06/18 05:44:08;;;;;;;;;;;22.20;99.90;;;;;;5084911;28;20009;-73
2021/06/18 05:46:34;;;;;;;;;;;22.50;99.90;;;;;;5091220;28;19946;-73
2021/06/18 05:49:00;;;;;;;;;;;22.80;99.90;;;;;;5092916;28;19908;-73
2021/06/18 05:51:25;;;;;;;;;;;23.00;99.90;;;;;;5092783;28;19908;-72
2021/06/18 05:53:53;;;;;;;;;;;23.30;99.90;;;;;;5091782;28;19915;-73
2021/06/18 05:56:19;;;;;;;;;;;23.60;99.90;;;;;;5092256;28;19909;-73
2021/06/18 05:58:44;;;;;;;;;;;23.80;99.90;;;;;;5092917;28;19915;-73
2021/06/18 06:01:10;;;;;;;;;;;24.40;99.90;;;;;;5092856;28;19981;-73
2021/06/18 06:03:35;;;;;;;;;;;24.90;99.90;;;;;;5092562;28;20285;-72
2021/06/18 06:06:01;;;;;;;;;;;25.00;99.90;;;;;;5091688;28;19912;-73
2021/06/18 06:08:28;;;;;;;;;;;25.30;99.90;;;;;;5092915;28;19908;-73
2021/06/18 06:10:53;;;;;;;;;;;25.70;99.90;;;;;;5092757;28;19908;-73
2021/06/18 06:13:19;;;;;;;;;;;26.10;99.90;;;;;;5092256;28;20144;-73
2021/06/18 06:15:46;;;;;;;;;;;26.40;99.90;;;;;;5083965;28;20449;-73
2021/06/18 06:18:12;;;;;;;;;;;26.70;99.90;;;;;;5092172;28;19969;-72
2021/06/18 06:20:37;;;;;;;;;;;27.00;99.10;;;;;;5092405;28;20007;-73
2021/06/18 06:23:03;;;;;;;;;;;27.10;98.50;;;;;;5092437;28;19920;-73
2021/06/18 06:25:28;;;;;;;;;;;27.40;98.20;;;;;;5092343;28;19912;-73
2021/06/18 06:27:54;;;;;;;;;;;27.80;96.40;;;;;;5091504;28;19908;-72
2021/06/18 06:30:19;;;;;;;;;;;28.00;96.00;;;;;;5092463;28;19908;-73
2021/06/18 06:32:45;;;;;;;;;;;28.40;95.30;;;;;;5092072;28;20010;-73
2021/06/18 06:35:11;;;;;;;;;;;28.70;95.80;;;;;;5091954;28;19974;-72
2021/06/18 06:37:36;;;;;;;;;;;28.80;93.70;;;;;;5091302;28;19912;-72
2021/06/18 06:40:02;;;;;;;;;;;29.00;94.40;;;;;;5092185;28;19912;-73
2021/06/18 06:42:27;;;;;;;;;;;29.00;92.60;;;;;;5091959;28;20330;-73
2021/06/18 06:44:53;;;;;;;;;;;29.10;92.00;;;;;;5083673;28;19954;-73
2021/06/18 06:47:18;;;;;;;;;;;28.90;91.90;;;;;;5090784;28;19912;-74
2021/06/18 06:49:44;;;;;;;;;;;28.80;93.20;;;;;;5091733;28;19912;-73
2021/06/18 06:52:10;;;;;;;;;;;29.30;93.40;;;;;;5091276;28;20028;-72
2021/06/18 06:54:35;;;;;;;;;;;29.80;92.60;;;;;;5091830;28;19961;-73
2021/06/18 06:57:01;;;;;;;;;;;30.00;90.30;;;;;;5089751;28;19954;-73
2021/06/18 06:59:26;;;;;;;;;;;29.60;90.70;;;;;;5091862;28;19923;-72
2021/06/18 07:01:52;;;;;;;;;;;29.70;90.50;;;;;;5091601;28;19915;-73
2021/06/18 07:04:17;;;;;;;;;;;29.60;90.30;;;;;;5090330;28;19912;-73
2021/06/18 07:06:44;;;;;;;;;;;30.00;90.30;;;;;;5090650;28;20014;-75
2021/06/18 07:09:10;;;;;;;;;;;30.50;86.40;;;;;;5091307;28;19912;-73
2021/06/18 07:11:35;;;;;;;;;;;31.00;88.50;;;;;;5090385;28;20365;-73
2021/06/18 07:14:01;;;;;;;;;;;31.40;87.40;;;;;;5084729;28;19914;-74
2021/06/18 07:16:26;;;;;;;;;;;31.90;86.40;;;;;;5088472;28;19908;-73
2021/06/18 07:18:52;;;;;;;;;;;32.10;85.00;;;;;;5091758;28;19966;-73
2021/06/18 07:21:18;;;;;;;;;;;32.20;86.90;;;;;;5091126;28;20410;-73
2021/06/18 07:23:43;;;;;;;;;;;32.30;82.30;;;;;;5084712;28;19916;-74
2021/06/18 07:26:08;;;;;;;;;;;32.60;82.00;;;;;;5089912;28;19977;-74
2021/06/18 07:28:34;;;;;;;;;;;32.80;81.80;;;;;;5090982;28;19908;-73
2021/06/18 07:31:00;;;;;;;;;;;32.70;80.00;;;;;;5091174;28;19908;-73
2021/06/18 07:33:25;;;;;;;;;;;32.80;80.70;;;;;;5091276;28;20349;-74
2021/06/18 07:35:51;;;;;;;;;;;33.10;81.60;;;;;;5090139;28;19912;-74
2021/06/18 07:38:16;;;;;;;;;;;33.20;79.60;;;;;;5082375;28;19908;-73
2021/06/18 07:40:42;;;;;;;;;;;33.30;81.80;;;;;;5090797;28;19908;-73
2021/06/18 07:43:07;;;;;;;;;;;33.30;76.00;;;;;;5090936;28;19916;-73
2021/06/18 07:45:33;;;;;;;;;;;33.30;79.30;;;;;;5090701;28;19954;-73
2021/06/18 07:47:58;;;;;;;;;;;33.30;79.10;;;;;;5090337;28;20013;-73
2021/06/18 07:50:24;;;;;;;;;;;33.30;81.70;;;;;;5090805;28;20284;-72
2021/06/18 07:52:49;;;;;;;;;;;33.30;75.50;;;;;;5090704;28;20362;-73
2021/06/18 07:55:21;;;;;;;;;;;33.30;78.60;;;;;;5090957;28;19908;-73
2021/06/18 07:57:47;;;;;;;;;;;33.30;77.50;;;;;;5090260;28;19908;-73
2021/06/18 08:00:13;;;;;;;;;;;33.20;80.10;;;;;;5090908;28;20376;-72
2021/06/18 08:02:39;;;;;;;;;;;33.30;81.00;;;;;;5091070;28;20003;-73
2021/06/18 08:05:04;;;;;;;;;;;33.30;78.90;;;;;;5093524;28;19954;-73
2021/06/18 08:07:30;;;;;;;;;;;33.40;77.50;;;;;;5086637;28;20008;-73
2021/06/18 08:09:55;;;;;;;;;;;33.60;81.00;;;;;;5094675;28;20434;-73
2021/06/18 08:12:21;;;;;;;;;;;33.50;75.60;;;;;;5094913;28;19908;-73
2021/06/18 08:14:50;;;;;;;;;;;33.10;75.10;;;;;;5094863;28;19915;-76
2021/06/18 08:17:16;;;;;;;;;;;33.30;81.90;;;;;;5093921;28;19947;-73
2021/06/18 08:19:41;;;;;;;;;;;33.50;77.20;;;;;;5095308;28;20373;-72
2021/06/18 08:22:07;;;;;;;;;;;33.50;76.10;;;;;;5094612;28;19962;-72
2021/06/18 08:24:33;;;;;;;;;;;33.50;78.00;;;;;;5094869;28;19995;-73
2021/06/18 08:26:59;;;;;;;;;;;33.40;79.90;;;;;;5093957;28;19915;-73
2021/06/18 08:29:24;;;;;;;;;;;33.40;75.90;;;;;;5094520;28;20502;-72
2021/06/18 08:31:50;;;;;;;;;;;33.40;79.60;;;;;;5094698;28;19960;-72
2021/06/18 08:34:15;;;;;;;;;;;33.40;79.10;;;;;;5093067;28;19916;-72
2021/06/18 08:36:41;;;;;;;;;;;33.40;77.00;;;;;;5089865;28;20292;-72
2021/06/18 08:39:07;;;;;;;;;;;33.50;76.90;;;;;;5089637;28;19919;-72
2021/06/18 08:41:33;;;;;;;;;;;33.80;77.30;;;;;;5094443;28;20388;-72
2021/06/18 08:43:58;;;;;;;;;;;33.90;77.00;;;;;;5094068;28;20015;-72
2021/06/18 08:46:24;;;;;;;;;;;34.10;75.30;;;;;;5093458;28;19908;-72
2021/06/18 08:48:49;;;;;;;;;;;34.30;77.70;;;;;;5094411;28;19909;-72
2021/06/18 08:51:15;;;;;;;;;;;34.40;75.10;;;;;;5094092;28;19955;-72
2021/06/18 08:53:41;;;;;;;;;;;34.50;79.90;;;;;;5094297;28;19908;-72
2021/06/18 08:56:07;;;;;;;;;;;34.70;78.90;;;;;;5093303;28;19908;-72
2021/06/18 08:58:33;;;;;;;;;;;34.90;78.90;;;;;;5093833;28;20335;-72
2021/06/18 09:00:58;;;;;;;;;;;35.00;74.00;;;;;;5094316;28;19912;-72
2021/06/18 09:03:35;;;;;;;;;;;34.90;74.10;;;;;;5085347;28;19912;-72
2021/06/18 09:06:00;;;;;;;;;;;34.70;77.70;;;;;;5092872;28;19908;-72
2021/06/18 09:08:26;;;;;;;;;;;34.70;77.40;;;;;;5093895;28;19915;-72
2021/06/18 09:10:52;;;;;;;;;;;34.50;74.40;;;;;;5093875;28;20003;-72
2021/06/18 09:13:19;;;;;;;;;;;34.40;73.10;;;;;;5093059;28;20190;-72
2021/06/18 09:15:46;;;;;;;;;;;34.40;75.00;;;;;;5092459;28;20067;-72
2021/06/18 09:18:31;;;;;;;;;;;34.20;75.00;;;;;;5093798;28;19908;-72
2021/06/18 09:21:03;;;;;;;;;;;34.40;78.80;;;;;;5093470;28;19914;-72
2021/06/18 09:23:28;;;;;;;;;;;34.50;72.90;;;;;;5093583;28;20365;-72
2021/06/18 09:26:13;;;;;;;;;;;34.60;71.80;;;;;;5092566;28;19959;-72
2021/06/18 09:28:57;;;;;;;;;;;34.60;73.60;;;;;;5093659;28;19954;-72
2021/06/18 09:31:23;;;;;;;;;;;34.90;75.80;;;;;;5093288;28;19912;-72
2021/06/18 09:33:48;;;;;;;;;;;35.20;79.00;;;;;;5086116;28;19908;-71
2021/06/18 09:36:14;;;;;;;;;;;35.30;71.70;;;;;;5091902;28;19931;-72
2021/06/18 09:38:51;;;;;;;;;;;35.50;75.60;;;;;;5092004;28;19908;-72
2021/06/18 09:41:33;;;;;;;;;;;35.60;74.20;;;;;;5093222;28;19932;-72
2021/06/18 09:44:09;;;;;;;;;;;35.50;70.60;;;;;;5093025;28;19916;-72
2021/06/18 09:46:45;;;;;;;;;;;35.60;72.30;;;;;;5092157;28;19908;-73
2021/06/18 09:49:11;;;;;;;;;;;35.80;69.10;;;;;;5092903;28;19931;-72
2021/06/18 09:51:56;;;;;;;;;;;35.80;69.60;;;;;;5092682;28;19919;-72
2021/06/18 09:54:22;;;;;;;;;;;35.90;69.70;;;;;;5092987;28;19908;-72
2021/06/18 09:56:47;;;;;;;;;;;35.80;69.10;;;;;;5092050;28;20384;-72
2021/06/18 09:59:21;;;;;;;;;;;35.90;70.00;;;;;;5092688;28;19920;-72
2021/06/18 10:01:51;;;;;;;;;;;35.90;72.70;;;;;;5089424;28;19954;-72
2021/06/18 10:04:16;;;;;;;;;;;35.50;66.80;;;;;;5089176;28;19963;-72
2021/06/18 10:06:42;;;;;;;;;;;35.60;71.30;;;;;;5091834;28;20000;-72
2021/06/18 10:09:09;;;;;;;;;;;35.90;66.90;;;;;;5092692;28;19908;-72
2021/06/18 10:11:35;;;;;;;;;;;36.10;70.10;;;;;;5091107;28;19961;-72
2021/06/18 10:14:01;;;;;;;;;;;36.30;66.10;;;;;;5092804;28;20277;-72
2021/06/18 10:16:27;;;;;;;;;;;36.40;68.40;;;;;;5091749;28;20011;-72
2021/06/18 10:18:57;;;;;;;;;;;36.50;63.60;;;;;;5092588;28;19908;-72
2021/06/18 10:21:23;;;;;;;;;;;36.50;65.90;;;;;;5092112;28;19977;-72
2021/06/18 10:23:49;;;;;;;;;;;36.60;65.90;;;;;;5086471;28;19924;-72
2021/06/18 10:26:15;;;;;;;;;;;36.80;65.60;;;;;;5087945;28;19909;-72
2021/06/18 10:28:50;;;;;;;;;;;36.90;64.40;;;;;;5091978;28;19987;-72
2021/06/18 10:31:24;;;;;;;;;;;37.10;65.80;;;;;;5092321;28;19908;-72
2021/06/18 10:34:02;;;;;;;;;;;37.40;63.10;;;;;;5085083;28;19908;-72
2021/06/18 10:36:29;;;;;;;;;;;37.50;62.20;;;;;;5090873;28;20003;-72
2021/06/18 10:39:03;;;;;;;;;;;37.70;60.50;;;;;;5092039;28;19912;-72
2021/06/18 10:41:29;;;;;;;;;;;37.90;56.60;;;;;;5092144;28;20369;-72
2021/06/18 10:43:58;;;;;;;;;;;37.90;58.30;;;;;;5091931;28;19923;-72
2021/06/18 10:46:30;;;;;;;;;;;37.70;57.10;;;;;;5091229;28;19915;-72
2021/06/18 10:48:55;;;;;;;;;;;37.90;63.30;;;;;;5091899;28;19912;-72
2021/06/18 10:53:54;;;;;;;;;;;38.00;54.50;;;;;;5091997;28;19914;-72
2021/06/18 10:56:20;;;;;;;;;;;37.90;54.60;;;;;;5091209;28;20234;-72
2021/06/18 10:59:05;;;;;;;;;;;37.90;55.00;;;;;;5091787;28;19915;-72
2021/06/18 11:01:31;;;;;;;;;;;37.90;57.50;;;;;;5090246;28;19908;-72
2021/06/18 11:03:57;;;;;;;;;;;38.00;54.90;;;;;;5085354;28;19912;-72
2021/06/18 11:06:47;;;;;;;;;;;38.10;58.20;;;;;;5090728;28;19915;-72
2021/06/18 11:09:13;;;;;;;;;;;38.20;53.30;;;;;;5091051;28;20024;-72
2021/06/18 11:11:39;;;;;;;;;;;38.00;56.10;;;;;;5091440;28;19962;-72
2021/06/18 11:14:05;;;;;;;;;;;37.30;56.70;;;;;;5091386;28;19916;-71
2021/06/18 11:16:32;;;;;;;;;;;36.80;59.10;;;;;;5090540;28;19908;-72
2021/06/18 11:19:17;;;;;;;;;;;36.90;61.30;;;;;;5091477;28;19994;-72
2021/06/18 11:21:43;;;;;;;;;;;37.10;59.40;;;;;;5090790;28;20338;-72
2021/06/18 11:24:08;;;;;;;;;;;37.20;58.70;;;;;;5091198;28;19971;-72
2021/06/18 11:26:34;;;;;;;;;;;37.30;59.10;;;;;;5090287;28;19908;-72
2021/06/18 11:28:59;;;;;;;;;;;37.50;60.60;;;;;;5091174;28;20365;-72
2021/06/18 11:31:37;;;;;;;;;;;37.60;58.90;;;;;;5090833;28;19908;-71
2021/06/18 11:34:03;;;;;;;;;;;37.70;58.40;;;;;;5085934;28;19908;-72
2021/06/18 11:36:33;;;;;;;;;;;37.80;55.10;;;;;;5089991;28;20357;-72
2021/06/18 11:38:59;;;;;;;;;;;37.70;59.10;;;;;;5090910;28;19962;-72
2021/06/18 11:41:31;;;;;;;;;;;37.50;53.80;;;;;;5091132;28;20428;-71
2021/06/18 11:43:58;;;;;;;;;;;37.50;57.60;;;;;;5091029;28;20195;-72
2021/06/18 11:46:28;;;;;;;;;;;37.40;55.70;;;;;;5090189;28;19909;-72
2021/06/18 11:48:57;;;;;;;;;;;37.40;56.00;;;;;;5090612;28;19909;-72
2021/06/18 11:51:24;;;;;;;;;;;37.60;57.10;;;;;;5090803;28;19908;-72
2021/06/18 11:53:49;;;;;;;;;;;37.70;55.20;;;;;;5090986;28;19928;-72
2021/06/18 11:56:15;;;;;;;;;;;37.70;55.50;;;;;;5090063;28;19908;-72
2021/06/18 11:58:42;;;;;;;;;;;37.70;53.30;;;;;;5090947;28;20285;-71
2021/06/18 12:01:16;;;;;;;;;;;37.40;54.10;;;;;;5091094;28;19909;-72
2021/06/18 12:03:43;;;;;;;;;;;37.30;54.80;;;;;;5083172;28;19912;-72
2021/06/18 12:06:27;;;;;;;;;;;37.40;56.70;;;;;;5088176;28;19908;-72
2021/06/18 12:09:06;;;;;;;;;;;37.30;55.20;;;;;;5090836;28;19908;-72
2021/06/18 12:11:36;;;;;;;;;;;37.30;54.00;;;;;;5090867;28;19973;-71
2021/06/18 12:14:02;;;;;;;;;;;37.30;53.60;;;;;;5090967;28;19908;-72
2021/06/18 12:16:29;;;;;;;;;;;37.00;53.60;;;;;;5089792;28;20006;-72
2021/06/18 12:18:55;;;;;;;;;;;36.80;55.40;;;;;;5090823;28;19962;-72
2021/06/18 12:21:27;;;;;;;;;;;36.90;59.80;;;;;;5090483;28;19908;-72
2021/06/18 12:24:02;;;;;;;;;;;37.30;57.30;;;;;;5090497;28;20286;-72
2021/06/18 12:26:27;;;;;;;;;;;37.40;52.00;;;;;;5089998;28;20330;-72
2021/06/18 12:28:54;;;;;;;;;;;37.70;52.20;;;;;;5090588;28;19958;-72
2021/06/18 12:31:19;;;;;;;;;;;37.90;48.30;;;;;;5090790;28;19919;-72
2021/06/18 12:33:45;;;;;;;;;;;38.20;46.80;;;;;;5082979;28;19908;-72
2021/06/18 12:36:15;;;;;;;;;;;38.30;47.00;;;;;;5088146;28;19908;-72
2021/06/18 12:38:43;;;;;;;;;;;38.30;48.00;;;;;;5087739;28;19916;-72
2021/06/18 12:41:22;;;;;;;;;;;38.40;49.60;;;;;;5072697;28;19916;-73
2021/06/18 12:43:47;;;;;;;;;;;38.50;46.60;;;;;;5070301;28;19924;-72
2021/06/18 12:46:18;;;;;;;;;;;38.70;53.10;;;;;;5069650;28;20350;-72
2021/06/18 12:48:43;;;;;;;;;;;38.80;48.20;;;;;;5070210;28;19909;-72
2021/06/18 12:51:17;;;;;;;;;;;38.80;44.40;;;;;;5072598;28;19919;-72
2021/06/18 12:53:43;;;;;;;;;;;38.60;47.40;;;;;;5073942;28;19908;-72
2021/06/18 12:56:12;;;;;;;;;;;38.40;47.90;;;;;;5073013;28;19908;-73
2021/06/18 12:58:37;;;;;;;;;;;38.40;49.80;;;;;;5073793;28;20289;-72
2021/06/18 13:01:12;;;;;;;;;;;38.30;44.60;;;;;;5073831;28;19908;-72
2021/06/18 13:03:39;;;;;;;;;;;38.30;44.00;;;;;;5085145;28;20322;-72
2021/06/18 13:06:06;;;;;;;;;;;38.30;46.60;;;;;;5092704;28;19914;-72
2021/06/18 13:08:33;;;;;;;;;;;38.10;44.20;;;;;;5093786;28;19958;-72
2021/06/18 13:10:58;;;;;;;;;;;38.00;47.70;;;;;;5093939;28;19908;-72
2021/06/18 13:13:29;;;;;;;;;;;38.20;46.20;;;;;;5093910;28;20585;-72
2021/06/18 13:16:08;;;;;;;;;;;38.10;45.90;;;;;;5092790;28;20334;-72
2021/06/18 13:18:53;;;;;;;;;;;37.90;48.70;;;;;;5093719;28;19908;-71
2021/06/18 13:21:19;;;;;;;;;;;38.00;49.80;;;;;;5093545;28;20350;-72
2021/06/18 13:23:45;;;;;;;;;;;38.20;45.80;;;;;;5093566;28;19912;-72
2021/06/18 13:26:11;;;;;;;;;;;38.30;48.50;;;;;;5092851;28;19912;-72
2021/06/18 13:28:44;;;;;;;;;;;38.40;53.40;;;;;;5093584;28;19965;-73
2021/06/18 13:31:15;;;;;;;;;;;38.50;47.60;;;;;;5093555;28;19912;-73
2021/06/18 13:33:44;;;;;;;;;;;38.70;44.70;;;;;;5085862;28;19908;-72
2021/06/18 13:36:10;;;;;;;;;;;38.90;45.70;;;;;;5092146;28;20006;-72
2021/06/18 13:38:36;;;;;;;;;;;38.70;46.10;;;;;;5093348;28;19962;-72
2021/06/18 13:41:02;;;;;;;;;;;38.60;46.50;;;;;;5093234;28;20345;-72
2021/06/18 13:43:28;;;;;;;;;;;38.30;45.90;;;;;;5093327;28;19966;-72
2021/06/18 13:45:53;;;;;;;;;;;38.10;46.00;;;;;;5092324;28;20003;-72
2021/06/18 13:48:19;;;;;;;;;;;37.80;45.80;;;;;;5093135;28;19920;-72
2021/06/18 13:50:48;;;;;;;;;;;37.50;45.40;;;;;;5091889;28;19908;-72
2021/06/18 13:53:14;;;;;;;;;;;37.30;45.30;;;;;;5092730;28;19908;-73
2021/06/18 13:55:40;;;;;;;;;;;37.50;49.20;;;;;;5092153;28;19912;-72
2021/06/18 13:58:05;;;;;;;;;;;37.50;45.80;;;;;;5093027;28;19931;-72
2021/06/18 14:00:31;;;;;;;;;;;37.70;45.00;;;;;;5092858;28;19908;-72
2021/06/18 14:02:58;;;;;;;;;;;38.00;48.70;;;;;;5085086;28;19916;-72
2021/06/18 14:05:26;;;;;;;;;;;38.10;50.10;;;;;;5092471;28;20269;-72
2021/06/18 14:07:52;;;;;;;;;;;38.10;46.30;;;;;;5092828;28;19908;-72
2021/06/18 14:10:17;;;;;;;;;;;38.10;49.60;;;;;;5094000;28;20007;-72
2021/06/18 14:12:43;;;;;;;;;;;38.10;47.60;;;;;;5093353;28;19931;-72
2021/06/18 14:15:11;;;;;;;;;;;38.20;50.30;;;;;;5092618;28;19959;-72
2021/06/18 14:17:37;;;;;;;;;;;38.30;48.70;;;;;;5091734;28;20288;-72
2021/06/18 14:20:04;;;;;;;;;;;38.30;47.40;;;;;;5092746;28;19999;-72